sensor_id;sensor_type;location;lat;lon;timestamp;temperature;humidity
32502;DHT22;18952;52.516;13.460;2023-04-12T00:01:01;5.20;99.90
32502;DHT22;18952;52.516;13.460;2023-04-12T00:03:27;5.20;99.90
32502;DHT22;18952;52.516;13.460;2023-04-12T00:05:54;5.20;99.90
32502;DHT22;18952;52.516;13.460;2023-04-12T00:08:22;5.10;99.90
32502;DHT22;18952;52.516;13.460;2023-04-12T00:10:49;5.10;99.90
32502;DHT22;18952;52.516;13.460;2023-04-12T00:13:15;5.00;99.90
32502;DHT22;18952;52.516;13.460;2023-04-12T00:15:42;5.00;99.90
32502;DHT22;18952;52.516;13.460;2023-04-12T00:18:09;5.00;99.90
32502;DHT22;18952;52.516;13.460;2023-04-12T00:20:36;5.00;99.90
32502;DHT22;18952;52.516;13.460;2023-04-12T00:23:02;5.00;99.90
32502;DHT22;18952;52.516;13.460;2023-04-12T00:25:29;5.00;99.90
32502;DHT22;18952;52.516;13.460;2023-04-12T00:27:56;4.90;99.90
32502;DHT22;18952;52.516;13.460;2023-04-12T00:30:22;4.80;99.90
32502;DHT22;18952;52.516;13.460;2023-04-12T00:32:49;4.80;99.90
32502;DHT22;18952;52.516;13.460;2023-04-12T00:35:16;4.80;99.90
32502;DHT22;18952;52.516;13.460;2023-04-12T00:37:43;4.90;99.90
32502;DHT22;18952;52.516;13.460;2023-04-12T00:40:10;4.80;99.90
32502;DHT22;18952;52.516;13.460;2023-04-12T00:42:39;4.80;99.90
32502;DHT22;18952;52.516;13.460;2023-04-12T00:45:07;4.80;99.90
32502;DHT22;18952;52.516;13.460;2023-04-12T00:47:34;4.80;99.90
32502;DHT22;18952;52.516;13.460;2023-04-12T00:50:03;4.80;99.90
32502;DHT22;18952;52.516;13.460;2023-04-12T00:52:31;4.80;99.90
32502;DHT22;18952;52.516;13.460;2023-04-12T00:55:05;4.80;99.90
32502;DHT22;18952;52.516;13.460;2023-04-12T00:57:34;4.80;99.90
32502;DHT22;18952;52.516;13.460;2023-04-12T01:00:06;4.80;99.90
32502;DHT22;18952;52.516;13.460;2023-04-12T01:02:34;4.80;99.90
32502;DHT22;18952;52.516;13.460;2023-04-12T01:05:01;4.80;99.90
32502;DHT22;18952;52.516;13.460;2023-04-12T01:07:50;4.80;99.90
32502;DHT22;18952;52.516;13.460;2023-04-12T01:14:02;4.80;99.90
32502;DHT22;18952;52.516;13.460;2023-04-12T01:18:35;4.70;99.90
32502;DHT22;18952;52.516;13.460;2023-04-12T01:21:09;4.70;99.90
32502;DHT22;18952;52.516;13.460;2023-04-12T01:26:38;4.70;99.90
32502;DHT22;18952;52.516;13.460;2023-04-12T01:29:15;4.70;99.90
32502;DHT22;18952;52.516;13.460;2023-04-12T01:32:23;4.70;99.90
32502;DHT22;18952;52.516;13.460;2023-04-12T01:34:43;4.70;99.90
32502;DHT22;18952;52.516;13.460;2023-04-12T01:37:11;4.70;99.90
32502;DHT22;18952;52.516;13.460;2023-04-12T01:39:38;4.60;99.90
32502;DHT22;18952;52.516;13.460;2023-04-12T01:42:05;4.60;99.90
32502;DHT22;18952;52.516;13.460;2023-04-12T01:44:32;4.50;99.90
32502;DHT22;18952;52.516;13.460;2023-04-12T01:46:59;4.50;99.90
32502;DHT22;18952;52.516;13.460;2023-04-12T01:49:32;4.50;99.90
32502;DHT22;18952;52.516;13.460;2023-04-12T01:52:12;4.50;99.90
32502;DHT22;18952;52.516;13.460;2023-04-12T01:54:43;4.50;99.90
32502;DHT22;18952;52.516;13.460;2023-04-12T01:57:12;4.40;99.90
32502;DHT22;18952;52.516;13.460;2023-04-12T01:59:41;4.40;99.90
32502;DHT22;18952;52.516;13.460;2023-04-12T02:02:10;4.40;99.90
32502;DHT22;18952;52.516;13.460;2023-04-12T02:04:37;4.40;99.90
32502;DHT22;18952;52.516;13.460;2023-04-12T02:07:05;4.40;99.90
32502;DHT22;18952;52.516;13.460;2023-04-12T02:09:38;4.30;99.90
32502;DHT22;18952;52.516;13.460;2023-04-12T02:12:05;4.30;99.90
32502;DHT22;18952;52.516;13.460;2023-04-12T02:14:32;4.20;99.90
32502;DHT22;18952;52.516;13.460;2023-04-12T02:16:59;4.20;99.90
32502;DHT22;18952;52.516;13.460;2023-04-12T02:19:27;4.10;99.90
32502;DHT22;18952;52.516;13.460;2023-04-12T02:21:53;4.10;99.90
32502;DHT22;18952;52.516;13.460;2023-04-12T02:24:20;4.10;99.90
32502;DHT22;18952;52.516;13.460;2023-04-12T02:26:47;4.10;99.90
32502;DHT22;18952;52.516;13.460;2023-04-12T02:29:13;4.10;99.90
32502;DHT22;18952;52.516;13.460;2023-04-12T02:31:40;4.00;99.90
32502;DHT22;18952;52.516;13.460;2023-04-12T02:34:07;4.10;99.90
32502;DHT22;18952;52.516;13.460;2023-04-12T02:36:34;4.00;99.90
32502;DHT22;18952;52.516;13.460;2023-04-12T02:39:00;4.00;99.90
32502;DHT22;18952;52.516;13.460;2023-04-12T02:41:27;4.00;99.90
32502;DHT22;18952;52.516;13.460;2023-04-12T02:43:54;4.00;99.90
32502;DHT22;18952;52.516;13.460;2023-04-12T02:46:23;3.90;99.90
32502;DHT22;18952;52.516;13.460;2023-04-12T02:48:50;3.90;99.90
32502;DHT22;18952;52.516;13.460;2023-04-12T02:51:17;3.90;99.90
32502;DHT22;18952;52.516;13.460;2023-04-12T02:53:43;3.80;99.90
32502;DHT22;18952;52.516;13.460;2023-04-12T02:56:10;3.80;99.90
32502;DHT22;18952;52.516;13.460;2023-04-12T02:58:37;3.80;99.90
32502;DHT22;18952;52.516;13.460;2023-04-12T03:01:04;3.80;99.90
32502;DHT22;18952;52.516;13.460;2023-04-12T03:03:31;3.80;99.90
32502;DHT22;18952;52.516;13.460;2023-04-12T03:05:58;3.80;99.90
32502;DHT22;18952;52.516;13.460;2023-04-12T03:08:25;3.80;99.90
32502;DHT22;18952;52.516;13.460;2023-04-12T03:10:51;3.80;99.90
32502;DHT22;18952;52.516;13.460;2023-04-12T03:13:18;3.70;99.90
32502;DHT22;18952;52.516;13.460;2023-04-12T03:15:46;3.70;99.90
32502;DHT22;18952;52.516;13.460;2023-04-12T03:18:13;3.70;99.90
32502;DHT22;18952;52.516;13.460;2023-04-12T03:20:40;3.70;99.90
32502;DHT22;18952;52.516;13.460;2023-04-12T03:23:06;3.70;99.90
32502;DHT22;18952;52.516;13.460;2023-04-12T03:25:33;3.70;99.90
32502;DHT22;18952;52.516;13.460;2023-04-12T03:28:00;3.60;99.90
32502;DHT22;18952;52.516;13.460;2023-04-12T03:30:27;3.60;99.90
32502;DHT22;18952;52.516;13.460;2023-04-12T03:32:53;3.60;99.90
32502;DHT22;18952;52.516;13.460;2023-04-12T03:35:20;3.60;99.90
32502;DHT22;18952;52.516;13.460;2023-04-12T03:37:47;3.60;99.90
32502;DHT22;18952;52.516;13.460;2023-04-12T03:40:13;3.50;99.90
32502;DHT22;18952;52.516;13.460;2023-04-12T03:42:40;3.50;99.90
32502;DHT22;18952;52.516;13.460;2023-04-12T03:45:07;3.50;99.90
32502;DHT22;18952;52.516;13.460;2023-04-12T03:47:34;3.50;99.90
32502;DHT22;18952;52.516;13.460;2023-04-12T03:50:03;3.50;99.90
32502;DHT22;18952;52.516;13.460;2023-04-12T03:52:38;3.50;99.90
32502;DHT22;18952;52.516;13.460;2023-04-12T03:55:05;3.50;99.90
32502;DHT22;18952;52.516;13.460;2023-04-12T03:57:32;3.50;99.90
32502;DHT22;18952;52.516;13.460;2023-04-12T03:59:58;3.50;99.90
32502;DHT22;18952;52.516;13.460;2023-04-12T04:02:26;3.50;99.90
32502;DHT22;18952;52.516;13.460;2023-04-12T04:04:53;3.50;99.90
32502;DHT22;18952;52.516;13.460;2023-04-12T04:07:20;3.40;99.90
32502;DHT22;18952;52.516;13.460;2023-04-12T04:09:47;3.40;99.90
32502;DHT22;18952;52.516;13.460;2023-04-12T04:12:14;3.40;99.90
32502;DHT22;18952;52.516;13.460;2023-04-12T04:14:40;3.40;99.90
32502;DHT22;18952;52.516;13.460;2023-04-12T04:17:07;3.40;99.90
32502;DHT22;18952;52.516;13.460;2023-04-12T04:19:34;3.40;99.90
32502;DHT22;18952;52.516;13.460;2023-04-12T04:22:01;3.40;99.90
32502;DHT22;18952;52.516;13.460;2023-04-12T04:24:28;3.40;99.90
32502;DHT22;18952;52.516;13.460;2023-04-12T04:26:54;3.30;99.90
32502;DHT22;18952;52.516;13.460;2023-04-12T04:29:21;3.40;99.90
32502;DHT22;18952;52.516;13.460;2023-04-12T04:31:48;3.40;99.90
32502;DHT22;18952;52.516;13.460;2023-04-12T04:34:14;3.40;99.90
32502;DHT22;18952;52.516;13.460;2023-04-12T04:36:42;3.30;99.90
32502;DHT22;18952;52.516;13.460;2023-04-12T04:39:08;3.40;99.90
32502;DHT22;18952;52.516;13.460;2023-04-12T04:41:35;3.40;99.90
32502;DHT22;18952;52.516;13.460;2023-04-12T04:44:02;3.40;99.90
32502;DHT22;18952;52.516;13.460;2023-04-12T04:46:28;3.30;99.90
32502;DHT22;18952;52.516;13.460;2023-04-12T04:48:55;3.40;99.90
32502;DHT22;18952;52.516;13.460;2023-04-12T04:51:22;3.30;99.90
32502;DHT22;18952;52.516;13.460;2023-04-12T04:53:49;3.40;99.90
32502;DHT22;18952;52.516;13.460;2023-04-12T04:56:15;3.30;99.90
32502;DHT22;18952;52.516;13.460;2023-04-12T04:58:42;3.30;99.90
32502;DHT22;18952;52.516;13.460;2023-04-12T05:01:09;3.30;99.90
32502;DHT22;18952;52.516;13.460;2023-04-12T05:03:35;3.40;99.90
32502;DHT22;18952;52.516;13.460;2023-04-12T05:06:02;3.40;99.90
32502;DHT22;18952;52.516;13.460;2023-04-12T05:08:29;3.40;99.90
32502;DHT22;18952;52.516;13.460;2023-04-12T05:10:56;3.50;99.90
32502;DHT22;18952;52.516;13.460;2023-04-12T05:13:23;3.40;99.90
32502;DHT22;18952;52.516;13.460;2023-04-12T05:15:50;3.50;99.90
32502;DHT22;18952;52.516;13.460;2023-04-12T05:18:16;3.50;99.90
32502;DHT22;18952;52.516;13.460;2023-04-12T05:20:43;3.50;99.90
32502;DHT22;18952;52.516;13.460;2023-04-12T05:23:10;3.50;99.90
32502;DHT22;18952;52.516;13.460;2023-04-12T05:25:43;3.50;99.90
32502;DHT22;18952;52.516;13.460;2023-04-12T05:28:10;3.50;99.90
32502;DHT22;18952;52.516;13.460;2023-04-12T05:30:36;3.50;99.90
32502;DHT22;18952;52.516;13.460;2023-04-12T05:33:03;3.60;99.90
32502;DHT22;18952;52.516;13.460;2023-04-12T05:35:30;3.60;99.90
32502;DHT22;18952;52.516;13.460;2023-04-12T05:37:58;3.60;99.90
32502;DHT22;18952;52.516;13.460;2023-04-12T05:40:26;3.60;99.90
32502;DHT22;18952;52.516;13.460;2023-04-12T05:42:53;3.60;99.90
32502;DHT22;18952;52.516;13.460;2023-04-12T05:45:19;3.70;99.90
32502;DHT22;18952;52.516;13.460;2023-04-12T05:47:46;3.70;99.90
32502;DHT22;18952;52.516;13.460;2023-04-12T05:50:13;3.70;99.90
32502;DHT22;18952;52.516;13.460;2023-04-12T05:52:40;3.80;99.90
32502;DHT22;18952;52.516;13.460;2023-04-12T05:55:08;3.80;99.90
32502;DHT22;18952;52.516;13.460;2023-04-12T05:57:35;3.80;99.90
32502;DHT22;18952;52.516;13.460;2023-04-12T06:00:01;3.90;99.90
32502;DHT22;18952;52.516;13.460;2023-04-12T06:02:28;3.90;99.90
32502;DHT22;18952;52.516;13.460;2023-04-12T06:04:56;4.00;99.90
32502;DHT22;18952;52.516;13.460;2023-04-12T06:07:23;4.00;99.90
32502;DHT22;18952;52.516;13.460;2023-04-12T06:09:50;4.00;99.90
32502;DHT22;18952;52.516;13.460;2023-04-12T06:12:17;4.00;99.90
32502;DHT22;18952;52.516;13.460;2023-04-12T06:14:44;4.10;99.90
32502;DHT22;18952;52.516;13.460;2023-04-12T06:17:11;4.10;99.90
32502;DHT22;18952;52.516;13.460;2023-04-12T06:19:37;4.20;99.90
32502;DHT22;18952;52.516;13.460;2023-04-12T06:22:04;4.20;99.90
32502;DHT22;18952;52.516;13.460;2023-04-12T06:24:31;4.20;99.90
32502;DHT22;18952;52.516;13.460;2023-04-12T06:26:58;4.30;99.90
32502;DHT22;18952;52.516;13.460;2023-04-12T06:29:25;4.30;99.90
32502;DHT22;18952;52.516;13.460;2023-04-12T06:31:52;4.30;99.90
32502;DHT22;18952;52.516;13.460;2023-04-12T06:34:19;4.30;99.90
32502;DHT22;18952;52.516;13.460;2023-04-12T06:36:46;4.40;99.90
32502;DHT22;18952;52.516;13.460;2023-04-12T06:39:13;4.50;99.90
32502;DHT22;18952;52.516;13.460;2023-04-12T06:41:40;4.50;99.90
32502;DHT22;18952;52.516;13.460;2023-04-12T06:44:06;4.50;99.90
32502;DHT22;18952;52.516;13.460;2023-04-12T06:46:33;4.60;99.90
32502;DHT22;18952;52.516;13.460;2023-04-12T06:49:00;4.70;99.90
32502;DHT22;18952;52.516;13.460;2023-04-12T06:51:29;4.70;99.90
32502;DHT22;18952;52.516;13.460;2023-04-12T06:53:56;4.80;99.90
32502;DHT22;18952;52.516;13.460;2023-04-12T06:56:23;4.80;99.90
32502;DHT22;18952;52.516;13.460;2023-04-12T06:58:50;4.90;99.90
32502;DHT22;18952;52.516;13.460;2023-04-12T07:01:17;5.00;99.90
32502;DHT22;18952;52.516;13.460;2023-04-12T07:03:44;5.00;99.90
32502;DHT22;18952;52.516;13.460;2023-04-12T07:06:11;5.10;99.90
32502;DHT22;18952;52.516;13.460;2023-04-12T07:08:51;5.10;99.90
32502;DHT22;18952;52.516;13.460;2023-04-12T07:11:19;5.20;99.90
32502;DHT22;18952;52.516;13.460;2023-04-12T07:13:48;5.30;99.90
32502;DHT22;18952;52.516;13.460;2023-04-12T07:16:16;5.40;99.90
32502;DHT22;18952;52.516;13.460;2023-04-12T07:18:43;5.40;99.90
32502;DHT22;18952;52.516;13.460;2023-04-12T07:21:10;5.50;99.90
32502;DHT22;18952;52.516;13.460;2023-04-12T07:23:37;5.60;99.90
32502;DHT22;18952;52.516;13.460;2023-04-12T07:26:04;5.70;99.90
32502;DHT22;18952;52.516;13.460;2023-04-12T07:28:31;5.70;99.90
32502;DHT22;18952;52.516;13.460;2023-04-12T07:30:58;5.80;99.90
32502;DHT22;18952;52.516;13.460;2023-04-12T07:33:25;5.90;99.90
32502;DHT22;18952;52.516;13.460;2023-04-12T07:35:52;5.90;99.90
32502;DHT22;18952;52.516;13.460;2023-04-12T07:38:19;6.10;99.90
32502;DHT22;18952;52.516;13.460;2023-04-12T07:40:46;6.20;99.90
32502;DHT22;18952;52.516;13.460;2023-04-12T07:43:15;6.20;99.90
32502;DHT22;18952;52.516;13.460;2023-04-12T07:45:42;6.30;99.90
32502;DHT22;18952;52.516;13.460;2023-04-12T07:48:09;6.40;99.90
32502;DHT22;18952;52.516;13.460;2023-04-12T07:50:36;6.50;99.90
32502;DHT22;18952;52.516;13.460;2023-04-12T07:53:24;6.60;99.90
32502;DHT22;18952;52.516;13.460;2023-04-12T07:55:51;6.70;99.90
32502;DHT22;18952;52.516;13.460;2023-04-12T07:58:19;6.70;99.90
32502;DHT22;18952;52.516;13.460;2023-04-12T08:00:46;6.80;99.90
32502;DHT22;18952;52.516;13.460;2023-04-12T08:03:15;6.90;99.90
32502;DHT22;18952;52.516;13.460;2023-04-12T08:05:43;6.90;99.90
32502;DHT22;18952;52.516;13.460;2023-04-12T08:08:10;7.00;99.90
32502;DHT22;18952;52.516;13.460;2023-04-12T08:10:38;7.00;99.90
32502;DHT22;18952;52.516;13.460;2023-04-12T08:13:06;7.10;99.90
32502;DHT22;18952;52.516;13.460;2023-04-12T08:15:33;7.20;99.90
32502;DHT22;18952;52.516;13.460;2023-04-12T08:18:01;7.20;99.90
32502;DHT22;18952;52.516;13.460;2023-04-12T08:24:38;7.50;99.90
32502;DHT22;18952;52.516;13.460;2023-04-12T08:27:15;7.50;99.90
32502;DHT22;18952;52.516;13.460;2023-04-12T08:30:03;7.60;99.90
32502;DHT22;18952;52.516;13.460;2023-04-12T08:32:33;7.60;99.90
32502;DHT22;18952;52.516;13.460;2023-04-12T08:35:04;7.60;99.90
32502;DHT22;18952;52.516;13.460;2023-04-12T08:37:33;7.70;99.90
32502;DHT22;18952;52.516;13.460;2023-04-12T08:40:05;7.70;99.90
32502;DHT22;18952;52.516;13.460;2023-04-12T08:42:36;7.90;99.90
32502;DHT22;18952;52.516;13.460;2023-04-12T08:45:04;8.00;99.90
32502;DHT22;18952;52.516;13.460;2023-04-12T08:47:36;8.10;99.90
32502;DHT22;18952;52.516;13.460;2023-04-12T08:50:04;8.20;99.90
32502;DHT22;18952;52.516;13.460;2023-04-12T08:52:33;8.20;99.90
32502;DHT22;18952;52.516;13.460;2023-04-12T08:55:04;8.30;99.90
32502;DHT22;18952;52.516;13.460;2023-04-12T08:57:32;8.30;99.90
32502;DHT22;18952;52.516;13.460;2023-04-12T09:00:00;8.40;99.90
32502;DHT22;18952;52.516;13.460;2023-04-12T09:02:30;8.40;99.90
32502;DHT22;18952;52.516;13.460;2023-04-12T09:04:58;8.50;99.90
32502;DHT22;18952;52.516;13.460;2023-04-12T09:07:25;8.60;99.90
32502;DHT22;18952;52.516;13.460;2023-04-12T09:09:53;8.60;99.90
32502;DHT22;18952;52.516;13.460;2023-04-12T09:12:20;8.70;99.90
32502;DHT22;18952;52.516;13.460;2023-04-12T09:14:47;8.80;99.90
32502;DHT22;18952;52.516;13.460;2023-04-12T09:17:25;8.90;99.90
32502;DHT22;18952;52.516;13.460;2023-04-12T09:19:53;8.90;99.90
32502;DHT22;18952;52.516;13.460;2023-04-12T09:22:36;8.90;99.90
32502;DHT22;18952;52.516;13.460;2023-04-12T09:25:06;9.00;99.90
32502;DHT22;18952;52.516;13.460;2023-04-12T09:27:49;9.10;99.90
32502;DHT22;18952;52.516;13.460;2023-04-12T09:30:17;9.10;99.90
32502;DHT22;18952;52.516;13.460;2023-04-12T09:32:45;9.20;99.90
32502;DHT22;18952;52.516;13.460;2023-04-12T09:35:12;9.20;99.90
32502;DHT22;18952;52.516;13.460;2023-04-12T09:37:39;9.30;99.90
32502;DHT22;18952;52.516;13.460;2023-04-12T09:40:08;9.30;99.90
32502;DHT22;18952;52.516;13.460;2023-04-12T09:42:49;9.40;99.90
32502;DHT22;18952;52.516;13.460;2023-04-12T09:47:47;9.60;99.90
32502;DHT22;18952;52.516;13.460;2023-04-12T09:52:49;9.70;98.70
32502;DHT22;18952;52.516;13.460;2023-04-12T09:55:16;9.80;99.80
32502;DHT22;18952;52.516;13.460;2023-04-12T09:57:44;9.80;99.70
32502;DHT22;18952;52.516;13.460;2023-04-12T10:00:12;9.90;98.70
32502;DHT22;18952;52.516;13.460;2023-04-12T10:02:41;9.90;97.40
32502;DHT22;18952;52.516;13.460;2023-04-12T10:05:13;10.00;97.00
32502;DHT22;18952;52.516;13.460;2023-04-12T10:07:42;10.00;97.80
32502;DHT22;18952;52.516;13.460;2023-04-12T10:10:11;10.10;97.00
32502;DHT22;18952;52.516;13.460;2023-04-12T10:12:39;10.20;96.40
32502;DHT22;18952;52.516;13.460;2023-04-12T10:15:11;10.20;97.30
32502;DHT22;18952;52.516;13.460;2023-04-12T10:17:46;10.30;97.60
32502;DHT22;18952;52.516;13.460;2023-04-12T10:20:14;10.30;96.50
32502;DHT22;18952;52.516;13.460;2023-04-12T10:22:45;10.30;96.60
32502;DHT22;18952;52.516;13.460;2023-04-12T10:25:13;10.30;95.80
32502;DHT22;18952;52.516;13.460;2023-04-12T10:27:42;10.30;95.70
32502;DHT22;18952;52.516;13.460;2023-04-12T10:30:23;10.40;95.40
32502;DHT22;18952;52.516;13.460;2023-04-12T10:35:31;10.50;94.70
32502;DHT22;18952;52.516;13.460;2023-04-12T10:38:15;10.60;94.80
32502;DHT22;18952;52.516;13.460;2023-04-12T10:41:17;10.60;94.90
32502;DHT22;18952;52.516;13.460;2023-04-12T10:49:16;10.80;92.80
32502;DHT22;18952;52.516;13.460;2023-04-12T10:52:09;10.80;92.90
32502;DHT22;18952;52.516;13.460;2023-04-12T10:54:36;10.80;92.20
32502;DHT22;18952;52.516;13.460;2023-04-12T10:57:04;10.90;92.10
32502;DHT22;18952;52.516;13.460;2023-04-12T11:02:15;11.00;91.00
32502;DHT22;18952;52.516;13.460;2023-04-12T11:05:10;11.00;91.10
32502;DHT22;18952;52.516;13.460;2023-04-12T11:07:39;11.10;90.50
32502;DHT22;18952;52.516;13.460;2023-04-12T11:10:13;11.00;90.60
32502;DHT22;18952;52.516;13.460;2023-04-12T11:12:46;11.10;90.00
32502;DHT22;18952;52.516;13.460;2023-04-12T11:15:13;11.20;90.40
32502;DHT22;18952;52.516;13.460;2023-04-12T11:17:40;11.30;90.60
32502;DHT22;18952;52.516;13.460;2023-04-12T11:20:11;11.30;90.70
32502;DHT22;18952;52.516;13.460;2023-04-12T11:22:38;11.40;88.20
32502;DHT22;18952;52.516;13.460;2023-04-12T11:25:05;11.40;86.40
32502;DHT22;18952;52.516;13.460;2023-04-12T11:27:32;11.40;86.80
32502;DHT22;18952;52.516;13.460;2023-04-12T11:30:00;11.50;87.50
32502;DHT22;18952;52.516;13.460;2023-04-12T11:32:28;11.60;86.60
32502;DHT22;18952;52.516;13.460;2023-04-12T11:34:56;11.70;86.10
32502;DHT22;18952;52.516;13.460;2023-04-12T11:37:24;11.90;86.90
32502;DHT22;18952;52.516;13.460;2023-04-12T11:39:52;12.00;86.40
32502;DHT22;18952;52.516;13.460;2023-04-12T11:42:23;12.10;85.00
32502;DHT22;18952;52.516;13.460;2023-04-12T11:44:51;12.30;86.00
32502;DHT22;18952;52.516;13.460;2023-04-12T11:47:26;12.40;86.20
32502;DHT22;18952;52.516;13.460;2023-04-12T11:49:54;12.50;85.10
32502;DHT22;18952;52.516;13.460;2023-04-12T11:52:29;12.70;83.80
32502;DHT22;18952;52.516;13.460;2023-04-12T11:55:00;12.80;83.40
32502;DHT22;18952;52.516;13.460;2023-04-12T11:57:27;12.90;79.60
32502;DHT22;18952;52.516;13.460;2023-04-12T11:59:56;13.10;80.30
32502;DHT22;18952;52.516;13.460;2023-04-12T12:02:25;13.20;80.20
32502;DHT22;18952;52.516;13.460;2023-04-12T12:04:57;13.40;80.60
32502;DHT22;18952;52.516;13.460;2023-04-12T12:07:24;13.60;77.50
32502;DHT22;18952;52.516;13.460;2023-04-12T12:09:52;13.70;76.60
32502;DHT22;18952;52.516;13.460;2023-04-12T12:12:22;13.90;76.80
32502;DHT22;18952;52.516;13.460;2023-04-12T12:14:49;14.00;73.10
32502;DHT22;18952;52.516;13.460;2023-04-12T12:17:16;14.20;73.50
32502;DHT22;18952;52.516;13.460;2023-04-12T12:19:44;14.20;72.50
32502;DHT22;18952;52.516;13.460;2023-04-12T12:22:18;14.30;71.00
32502;DHT22;18952;52.516;13.460;2023-04-12T12:24:57;14.30;71.20
32502;DHT22;18952;52.516;13.460;2023-04-12T12:27:31;14.40;71.90
32502;DHT22;18952;52.516;13.460;2023-04-12T12:30:00;14.40;71.60
32502;DHT22;18952;52.516;13.460;2023-04-12T12:32:32;14.50;70.70
32502;DHT22;18952;52.516;13.460;2023-04-12T12:34:59;14.60;69.10
32502;DHT22;18952;52.516;13.460;2023-04-12T12:37:28;14.70;70.50
32502;DHT22;18952;52.516;13.460;2023-04-12T12:40:05;14.80;69.60
32502;DHT22;18952;52.516;13.460;2023-04-12T12:42:35;15.00;69.30
32502;DHT22;18952;52.516;13.460;2023-04-12T12:45:06;15.20;68.90
32502;DHT22;18952;52.516;13.460;2023-04-12T12:50:15;15.40;66.80
32502;DHT22;18952;52.516;13.460;2023-04-12T12:52:43;15.40;66.70
32502;DHT22;18952;52.516;13.460;2023-04-12T12:55:10;15.40;67.50
32502;DHT22;18952;52.516;13.460;2023-04-12T12:57:36;15.50;68.00
32502;DHT22;18952;52.516;13.460;2023-04-12T13:00:04;15.40;65.10
32502;DHT22;18952;52.516;13.460;2023-04-12T13:02:31;15.30;65.90
32502;DHT22;18952;52.516;13.460;2023-04-12T13:05:04;15.20;64.80
32502;DHT22;18952;52.516;13.460;2023-04-12T13:07:33;15.10;65.90
32502;DHT22;18952;52.516;13.460;2023-04-12T13:10:01;15.10;66.70
32502;DHT22;18952;52.516;13.460;2023-04-12T13:12:28;15.10;65.30
32502;DHT22;18952;52.516;13.460;2023-04-12T13:14:56;15.20;66.10
32502;DHT22;18952;52.516;13.460;2023-04-12T13:17:43;15.30;66.50
32502;DHT22;18952;52.516;13.460;2023-04-12T13:20:10;15.40;66.10
32502;DHT22;18952;52.516;13.460;2023-04-12T13:22:37;15.60;66.20
32502;DHT22;18952;52.516;13.460;2023-04-12T13:25:05;15.80;64.70
32502;DHT22;18952;52.516;13.460;2023-04-12T13:27:32;15.90;65.90
32502;DHT22;18952;52.516;13.460;2023-04-12T13:30:00;16.10;63.50
32502;DHT22;18952;52.516;13.460;2023-04-12T13:32:26;16.30;63.50
32502;DHT22;18952;52.516;13.460;2023-04-12T13:34:56;16.40;64.00
32502;DHT22;18952;52.516;13.460;2023-04-12T13:37:23;16.40;63.00
32502;DHT22;18952;52.516;13.460;2023-04-12T13:39:51;16.30;62.80
32502;DHT22;18952;52.516;13.460;2023-04-12T13:42:18;16.30;62.80
32502;DHT22;18952;52.516;13.460;2023-04-12T13:44:45;16.20;62.90
32502;DHT22;18952;52.516;13.460;2023-04-12T13:47:13;16.20;63.00
32502;DHT22;18952;52.516;13.460;2023-04-12T13:49:40;16.20;62.00
32502;DHT22;18952;52.516;13.460;2023-04-12T13:52:07;16.10;61.90
32502;DHT22;18952;52.516;13.460;2023-04-12T13:54:34;16.00;60.60
32502;DHT22;18952;52.516;13.460;2023-04-12T13:57:11;16.00;62.20
32502;DHT22;18952;52.516;13.460;2023-04-12T13:59:38;16.00;62.10
32502;DHT22;18952;52.516;13.460;2023-04-12T14:02:05;15.90;63.00
32502;DHT22;18952;52.516;13.460;2023-04-12T14:04:32;15.80;62.40
32502;DHT22;18952;52.516;13.460;2023-04-12T14:06:59;15.70;62.00
32502;DHT22;18952;52.516;13.460;2023-04-12T14:09:28;15.60;63.10
32502;DHT22;18952;52.516;13.460;2023-04-12T14:11:56;15.60;62.60
32502;DHT22;18952;52.516;13.460;2023-04-12T14:14:25;15.40;62.80
32502;DHT22;18952;52.516;13.460;2023-04-12T14:16:54;15.20;63.40
32502;DHT22;18952;52.516;13.460;2023-04-12T14:19:22;15.10;63.60
32502;DHT22;18952;52.516;13.460;2023-04-12T14:21:49;15.00;64.50
32502;DHT22;18952;52.516;13.460;2023-04-12T14:24:17;14.90;65.00
32502;DHT22;18952;52.516;13.460;2023-04-12T14:26:44;14.80;64.50
32502;DHT22;18952;52.516;13.460;2023-04-12T14:29:11;14.60;64.30
32502;DHT22;18952;52.516;13.460;2023-04-12T14:31:38;14.40;64.30
32502;DHT22;18952;52.516;13.460;2023-04-12T14:34:05;14.30;64.90
32502;DHT22;18952;52.516;13.460;2023-04-12T14:36:32;14.20;65.30
32502;DHT22;18952;52.516;13.460;2023-04-12T14:38:58;14.10;66.50
32502;DHT22;18952;52.516;13.460;2023-04-12T14:41:25;14.20;66.90
32502;DHT22;18952;52.516;13.460;2023-04-12T14:43:52;14.20;67.10
32502;DHT22;18952;52.516;13.460;2023-04-12T14:46:21;14.10;67.10
32502;DHT22;18952;52.516;13.460;2023-04-12T14:48:51;14.20;67.90
32502;DHT22;18952;52.516;13.460;2023-04-12T14:51:18;14.10;67.90
32502;DHT22;18952;52.516;13.460;2023-04-12T14:53:50;14.10;67.90
32502;DHT22;18952;52.516;13.460;2023-04-12T14:56:24;13.90;68.00
32502;DHT22;18952;52.516;13.460;2023-04-12T14:58:55;13.90;67.80
32502;DHT22;18952;52.516;13.460;2023-04-12T15:01:25;13.70;67.50
32502;DHT22;18952;52.516;13.460;2023-04-12T15:03:52;13.70;67.10
32502;DHT22;18952;52.516;13.460;2023-04-12T15:06:21;13.50;67.70
32502;DHT22;18952;52.516;13.460;2023-04-12T15:08:52;13.50;68.30
32502;DHT22;18952;52.516;13.460;2023-04-12T15:11:19;13.50;67.60
32502;DHT22;18952;52.516;13.460;2023-04-12T15:13:46;13.50;67.80
32502;DHT22;18952;52.516;13.460;2023-04-12T15:16:13;13.40;68.10
32502;DHT22;18952;52.516;13.460;2023-04-12T15:18:45;13.40;69.80
32502;DHT22;18952;52.516;13.460;2023-04-12T15:21:12;13.20;70.40
32502;DHT22;18952;52.516;13.460;2023-04-12T15:23:40;13.10;71.60
32502;DHT22;18952;52.516;13.460;2023-04-12T15:26:07;12.90;73.60
32502;DHT22;18952;52.516;13.460;2023-04-12T15:28:35;12.70;75.10
32502;DHT22;18952;52.516;13.460;2023-04-12T15:31:02;12.50;77.40
32502;DHT22;18952;52.516;13.460;2023-04-12T15:33:29;12.40;80.80
32502;DHT22;18952;52.516;13.460;2023-04-12T15:35:57;12.30;83.30
32502;DHT22;18952;52.516;13.460;2023-04-12T15:38:25;12.20;87.70
32502;DHT22;18952;52.516;13.460;2023-04-12T15:40:54;12.00;91.00
32502;DHT22;18952;52.516;13.460;2023-04-12T15:43:22;11.80;92.30
32502;DHT22;18952;52.516;13.460;2023-04-12T15:45:50;11.70;94.70
32502;DHT22;18952;52.516;13.460;2023-04-12T15:48:17;11.70;96.60
32502;DHT22;18952;52.516;13.460;2023-04-12T15:50:45;11.70;98.30
32502;DHT22;18952;52.516;13.460;2023-04-12T15:53:37;11.60;99.30
32502;DHT22;18952;52.516;13.460;2023-04-12T15:59:43;11.70;99.90
32502;DHT22;18952;52.516;13.460;2023-04-12T16:02:58;11.80;99.90
32502;DHT22;18952;52.516;13.460;2023-04-12T16:09:29;12.10;99.90
32502;DHT22;18952;52.516;13.460;2023-04-12T16:12:03;12.00;99.90
32502;DHT22;18952;52.516;13.460;2023-04-12T16:14:54;11.90;99.90